Time;durP1;ratioP1;P1;durP2;ratioP2;P2;SDS_P1;SDS_P2;PMS_P1;PMS_P2;Temp;Humidity;BMP_temperature;BMP_pressure;BME280_temperature;BME280_humidity;BME280_pressure;Samples;Min_cycle;Max_cycle;Signal;HPM_P1;HPM_P2
2021/07/23 00:00:05;;;;;;;5.63;4.97;;;;;;;;;;4991669;28;20611;-73
2021/07/23 00:02:30;;;;;;;5.63;4.40;;;;;;;;;;4993254;28;20171;-72
2021/07/23 00:04:55;;;;;;;8.52;5.10;;;;;;;;;;4990115;28;20685;-72
2021/07/23 00:07:20;;;;;;;5.32;4.65;;;;;;;;;;4988031;28;20188;-73
2021/07/23 00:09:45;;;;;;;5.70;5.03;;;;;;;;;;4985486;28;20279;-72
2021/07/23 00:12:11;;;;;;;9.57;5.30;;;;;;;;;;4984541;28;20180;-73
2021/07/23 00:14:36;;;;;;;6.25;4.63;;;;;;;;;;4987886;28;20241;-72
2021/07/23 00:17:01;;;;;;;6.43;4.82;;;;;;;;;;4992826;28;20199;-72
2021/07/23 00:19:27;;;;;;;7.10;5.45;;;;;;;;;;4990989;28;20172;-73
2021/07/23 00:21:52;;;;;;;6.47;5.03;;;;;;;;;;4990939;28;20647;-72
2021/07/23 00:24:17;;;;;;;8.90;5.82;;;;;;;;;;4984280;28;20219;-75
2021/07/23 00:26:48;;;;;;;6.57;5.47;;;;;;;;;;4991279;28;20285;-72
2021/07/23 00:29:14;;;;;;;6.00;5.10;;;;;;;;;;4990577;28;20184;-72
2021/07/23 00:31:39;;;;;;;6.85;5.22;;;;;;;;;;4992664;28;20394;-75
2021/07/23 00:34:04;;;;;;;8.55;6.15;;;;;;;;;;4990619;28;20219;-75
2021/07/23 00:36:29;;;;;;;7.38;5.50;;;;;;;;;;4991713;28;20207;-74
2021/07/23 00:38:54;;;;;;;8.73;5.72;;;;;;;;;;4985705;28;20182;-72
2021/07/23 00:41:19;;;;;;;10.10;6.18;;;;;;;;;;4988660;28;20736;-74
2021/07/23 00:43:45;;;;;;;8.57;5.53;;;;;;;;;;4989508;28;20257;-74
2021/07/23 00:46:10;;;;;;;8.85;6.00;;;;;;;;;;4989200;28;20223;-72
2021/07/23 00:48:35;;;;;;;9.65;5.55;;;;;;;;;;4983518;28;20259;-74
2021/07/23 00:51:00;;;;;;;8.15;6.38;;;;;;;;;;4989003;28;20226;-74
2021/07/23 00:53:26;;;;;;;11.45;6.45;;;;;;;;;;4986999;28;20196;-74
2021/07/23 00:55:55;;;;;;;8.40;6.38;;;;;;;;;;4987132;28;20740;-73
2021/07/23 00:58:20;;;;;;;8.65;5.82;;;;;;;;;;4990864;28;20326;-73
2021/07/23 01:00:46;;;;;;;7.50;5.72;;;;;;;;;;4984334;28;20700;-73
2021/07/23 01:03:11;;;;;;;8.25;6.03;;;;;;;;;;4990725;28;20262;-72
2021/07/23 01:05:36;;;;;;;9.07;6.18;;;;;;;;;;4989543;28;20207;-74
2021/07/23 01:08:02;;;;;;;7.82;6.68;;;;;;;;;;4987898;28;20176;-72
2021/07/23 01:10:27;;;;;;;7.78;6.05;;;;;;;;;;4987598;28;20188;-72
2021/07/23 01:12:52;;;;;;;7.25;5.65;;;;;;;;;;4990240;28;20275;-75
2021/07/23 01:15:18;;;;;;;8.17;6.20;;;;;;;;;;4989733;28;20207;-72
2021/07/23 01:17:43;;;;;;;8.52;6.47;;;;;;;;;;4991620;28;20548;-72
2021/07/23 01:20:14;;;;;;;7.60;6.18;;;;;;;;;;4988907;28;20191;-71
2021/07/23 01:22:40;;;;;;;6.63;5.40;;;;;;;;;;4990603;28;20191;-73
2021/07/23 01:25:06;;;;;;;8.18;5.88;;;;;;;;;;5000858;23;20235;-76
2021/07/23 01:27:35;;;;;;;6.95;6.25;;;;;;;;;;4989250;28;20190;-76
2021/07/23 01:30:05;;;;;;;9.82;6.38;;;;;;;;;;4994600;28;20183;-76
2021/07/23 01:32:30;;;;;;;10.07;6.80;;;;;;;;;;5000535;28;20316;-76
2021/07/23 01:34:55;;;;;;;8.88;6.50;;;;;;;;;;4991910;28;20274;-76
2021/07/23 01:37:21;;;;;;;9.88;6.97;;;;;;;;;;4980089;28;20281;-76
2021/07/23 01:39:46;;;;;;;8.15;6.45;;;;;;;;;;4981548;28;20188;-76
2021/07/23 01:42:11;;;;;;;7.18;5.68;;;;;;;;;;4982481;28;20672;-76
2021/07/23 01:44:36;;;;;;;10.65;7.07;;;;;;;;;;4986278;28;20689;-76
2021/07/23 01:47:02;;;;;;;8.30;6.10;;;;;;;;;;4973192;28;20270;-77
2021/07/23 01:49:27;;;;;;;8.60;6.68;;;;;;;;;;4976364;28;20246;-76
2021/07/23 01:51:52;;;;;;;10.13;6.20;;;;;;;;;;4983158;28;20184;-77
2021/07/23 01:54:17;;;;;;;8.68;6.30;;;;;;;;;;4986764;28;20208;-76
2021/07/23 01:56:44;;;;;;;10.10;6.63;;;;;;;;;;4984425;28;20204;-77
2021/07/23 01:59:09;;;;;;;9.45;7.30;;;;;;;;;;4979284;28;20184;-76
2021/07/23 02:01:34;;;;;;;7.68;5.88;;;;;;;;;;4974112;28;20489;-76
2021/07/23 02:03:59;;;;;;;11.30;6.43;;;;;;;;;;4977200;28;20196;-76
2021/07/23 02:06:25;;;;;;;10.82;6.88;;;;;;;;;;4984486;28;20242;-77
2021/07/23 02:08:50;;;;;;;9.35;7.05;;;;;;;;;;4982899;28;20180;-76
2021/07/23 02:11:15;;;;;;;10.48;7.30;;;;;;;;;;4975380;28;20188;-77
2021/07/23 02:13:40;;;;;;;7.28;6.45;;;;;;;;;;4977265;28;20279;-76
2021/07/23 02:16:05;;;;;;;10.73;7.32;;;;;;;;;;4991041;28;20211;-77
2021/07/23 02:18:31;;;;;;;10.13;6.97;;;;;;;;;;4986192;28;20308;-76
2021/07/23 02:20:56;;;;;;;10.15;7.93;;;;;;;;;;4990274;28;20279;-77
2021/07/23 02:23:21;;;;;;;10.23;7.50;;;;;;;;;;4980936;28;20223;-76
2021/07/23 02:25:46;;;;;;;10.27;7.32;;;;;;;;;;4982553;28;20211;-76
2021/07/23 02:28:11;;;;;;;10.65;7.15;;;;;;;;;;4986333;28;20638;-75
2021/07/23 02:30:39;;;;;;;11.93;7.78;;;;;;;;;;4989771;28;20271;-77
2021/07/23 02:33:04;;;;;;;8.52;7.03;;;;;;;;;;4989344;28;20183;-76
2021/07/23 02:35:29;;;;;;;8.40;6.50;;;;;;;;;;4983032;28;20238;-77
2021/07/23 02:37:54;;;;;;;9.50;7.23;;;;;;;;;;4989952;28;20700;-76
2021/07/23 02:40:19;;;;;;;11.90;7.93;;;;;;;;;;4981791;28;20483;-76
2021/07/23 02:42:44;;;;;;;9.00;6.60;;;;;;;;;;4985021;28;20668;-76
2021/07/23 02:45:10;;;;;;;10.75;7.07;;;;;;;;;;4984646;28;20215;-77
2021/07/23 02:47:35;;;;;;;11.35;6.72;;;;;;;;;;4989862;28;20262;-77
2021/07/23 02:50:00;;;;;;;8.80;7.45;;;;;;;;;;4990271;28;20191;-77
2021/07/23 02:52:25;;;;;;;11.50;7.20;;;;;;;;;;4988998;28;20180;-77
2021/07/23 02:54:50;;;;;;;11.38;7.43;;;;;;;;;;4990562;28;20204;-77
2021/07/23 02:57:15;;;;;;;11.90;7.35;;;;;;;;;;4987790;28;20214;-77
2021/07/23 02:59:41;;;;;;;9.02;7.00;;;;;;;;;;4985984;28;20242;-76
2021/07/23 03:02:06;;;;;;;9.13;7.70;;;;;;;;;;4985253;28;20187;-77
2021/07/23 03:04:31;;;;;;;8.50;6.80;;;;;;;;;;4979400;28;20299;-77
2021/07/23 03:06:56;;;;;;;10.90;7.00;;;;;;;;;;4976621;28;20199;-76
2021/07/23 03:09:21;;;;;;;9.48;6.57;;;;;;;;;;4970259;28;20263;-76
2021/07/23 03:11:47;;;;;;;10.55;7.68;;;;;;;;;;4986415;28;20183;-76
2021/07/23 03:14:12;;;;;;;9.00;7.53;;;;;;;;;;4983041;28;20202;-76
2021/07/23 03:16:37;;;;;;;12.50;7.82;;;;;;;;;;4983671;28;20705;-76
2021/07/23 03:19:02;;;;;;;8.80;6.78;;;;;;;;;;4983471;28;20168;-78
2021/07/23 03:21:27;;;;;;;10.85;7.43;;;;;;;;;;4991435;28;20168;-76
2021/07/23 03:23:52;;;;;;;10.13;7.47;;;;;;;;;;4987567;28;20290;-77
2021/07/23 03:26:19;;;;;;;9.75;7.70;;;;;;;;;;4972173;28;20179;-76
2021/07/23 03:28:44;;;;;;;11.15;8.13;;;;;;;;;;4984566;28;20186;-76
2021/07/23 03:31:13;;;;;;;10.50;6.95;;;;;;;;;;4971193;28;20254;-76
2021/07/23 03:33:38;;;;;;;8.98;7.00;;;;;;;;;;4976065;28;20180;-76
2021/07/23 03:36:04;;;;;;;10.57;8.23;;;;;;;;;;4984473;28;20187;-76
2021/07/23 03:38:29;;;;;;;9.60;7.47;;;;;;;;;;4978032;28;20257;-76
2021/07/23 03:40:54;;;;;;;9.45;7.35;;;;;;;;;;4981969;28;20641;-77
2021/07/23 03:43:19;;;;;;;11.02;8.10;;;;;;;;;;4971212;28;20184;-76
2021/07/23 03:45:44;;;;;;;10.23;7.68;;;;;;;;;;4985636;28;20789;-77
2021/07/23 03:48:10;;;;;;;9.25;6.72;;;;;;;;;;4977864;28;20532;-76
2021/07/23 03:50:35;;;;;;;9.90;7.93;;;;;;;;;;4980986;28;20188;-75
2021/07/23 03:53:00;;;;;;;8.35;7.25;;;;;;;;;;4977853;28;21393;-76
2021/07/23 03:55:25;;;;;;;9.32;7.18;;;;;;;;;;4988877;28;20192;-76
2021/07/23 03:57:50;;;;;;;10.00;7.30;;;;;;;;;;4984793;28;20204;-76
2021/07/23 04:00:17;;;;;;;8.70;7.35;;;;;;;;;;4977619;28;20188;-76
2021/07/23 04:02:42;;;;;;;10.65;7.47;;;;;;;;;;4962122;28;20180;-76
2021/07/23 04:05:07;;;;;;;9.37;7.23;;;;;;;;;;4979045;28;20749;-77
2021/07/23 04:07:32;;;;;;;11.05;8.45;;;;;;;;;;4979537;28;20492;-76
2021/07/23 04:09:58;;;;;;;8.38;7.35;;;;;;;;;;4982778;28;20192;-76
2021/07/23 04:12:24;;;;;;;11.95;8.45;;;;;;;;;;4969787;28;20275;-76
2021/07/23 04:14:49;;;;;;;8.77;7.87;;;;;;;;;;4981848;28;20286;-76
2021/07/23 04:17:14;;;;;;;11.38;8.38;;;;;;;;;;4973770;28;20808;-77
2021/07/23 04:19:39;;;;;;;10.27;7.53;;;;;;;;;;4980475;28;20184;-77
2021/07/23 04:22:04;;;;;;;9.47;7.23;;;;;;;;;;4981837;28;20588;-76
2021/07/23 04:24:29;;;;;;;10.68;7.40;;;;;;;;;;4980199;28;20450;-76
2021/07/23 04:26:58;;;;;;;10.05;7.95;;;;;;;;;;4989915;28;20681;-79
2021/07/23 04:29:23;;;;;;;7.35;6.57;;;;;;;;;;4981208;28;20523;-76
2021/07/23 04:31:49;;;;;;;11.05;7.68;;;;;;;;;;4980041;28;20203;-76
2021/07/23 04:34:14;;;;;;;8.30;7.03;;;;;;;;;;4980822;28;20203;-76
2021/07/23 04:36:39;;;;;;;8.73;7.65;;;;;;;;;;4982767;28;20581;-76
2021/07/23 04:39:05;;;;;;;9.68;7.22;;;;;;;;;;4981280;28;20183;-76
2021/07/23 04:41:30;;;;;;;15.77;7.93;;;;;;;;;;4983385;28;20629;-77
2021/07/23 04:43:56;;;;;;;11.27;7.68;;;;;;;;;;4981655;28;20648;-77
2021/07/23 04:46:21;;;;;;;8.73;6.97;;;;;;;;;;4984703;28;20676;-76
2021/07/23 04:48:46;;;;;;;8.30;7.18;;;;;;;;;;4978833;28;20430;-77
2021/07/23 04:51:11;;;;;;;9.90;7.03;;;;;;;;;;4983718;28;20553;-77
2021/07/23 04:53:36;;;;;;;8.88;7.07;;;;;;;;;;4972547;28;20425;-76
2021/07/23 04:56:05;;;;;;;8.52;6.82;;;;;;;;;;4985419;28;20172;-76
2021/07/23 04:58:30;;;;;;;9.23;6.78;;;;;;;;;;4982198;28;20219;-77
2021/07/23 05:00:55;;;;;;;7.93;6.65;;;;;;;;;;4980826;28;20175;-76
2021/07/23 05:03:23;;;;;;;11.07;6.75;;;;;;;;;;4978053;28;20176;-76
2021/07/23 05:05:48;;;;;;;7.07;6.35;;;;;;;;;;4983697;28;20642;-76
2021/07/23 05:08:14;;;;;;;11.18;7.30;;;;;;;;;;4970674;28;20274;-76
2021/07/23 05:10:43;;;;;;;6.65;5.78;;;;;;;;;;4964610;28;20273;-76
2021/07/23 05:13:08;;;;;;;9.55;6.25;;;;;;;;;;4969449;28;20183;-76
2021/07/23 05:15:34;;;;;;;10.70;6.50;;;;;;;;;;4978918;28;20208;-76
2021/07/23 05:17:59;;;;;;;9.30;6.07;;;;;;;;;;4976614;28;20242;-75
2021/07/23 05:20:24;;;;;;;8.48;6.40;;;;;;;;;;4966253;28;20226;-77
2021/07/23 05:22:50;;;;;;;7.80;6.15;;;;;;;;;;4981524;28;20191;-76
2021/07/23 05:25:15;;;;;;;6.03;5.32;;;;;;;;;;4979270;28;20295;-77
2021/07/23 05:27:40;;;;;;;7.72;6.55;;;;;;;;;;4962180;28;20235;-77
2021/07/23 05:30:05;;;;;;;6.47;5.88;;;;;;;;;;4966955;28;20195;-77
2021/07/23 05:32:31;;;;;;;9.60;6.63;;;;;;;;;;4962645;28;20567;-77
2021/07/23 05:34:56;;;;;;;9.23;5.57;;;;;;;;;;4982955;28;20207;-76
2021/07/23 05:37:21;;;;;;;8.13;6.00;;;;;;;;;;4976081;28;20476;-77
2021/07/23 05:39:47;;;;;;;7.82;6.65;;;;;;;;;;4968825;28;20471;-76
2021/07/23 05:42:13;;;;;;;8.60;6.78;;;;;;;;;;4974332;28;20271;-76
2021/07/23 05:44:38;;;;;;;7.90;5.72;;;;;;;;;;4977105;28;20282;-77
2021/07/23 05:47:03;;;;;;;7.07;5.95;;;;;;;;;;4973928;28;20187;-77
2021/07/23 05:49:28;;;;;;;6.07;5.45;;;;;;;;;;4959136;28;20617;-75
2021/07/23 05:51:54;;;;;;;8.37;6.00;;;;;;;;;;4988775;28;20192;-76
2021/07/23 05:54:19;;;;;;;7.60;6.78;;;;;;;;;;4984890;28;20481;-77
2021/07/23 05:56:44;;;;;;;8.73;7.80;;;;;;;;;;4980314;28;20204;-77
2021/07/23 05:59:09;;;;;;;8.98;6.70;;;;;;;;;;4980926;28;20711;-77
2021/07/23 06:01:34;;;;;;;8.63;6.70;;;;;;;;;;4979687;28;20608;-77
2021/07/23 06:04:00;;;;;;;8.93;7.07;;;;;;;;;;4978928;28;20450;-76
2021/07/23 06:06:25;;;;;;;8.38;6.45;;;;;;;;;;4985875;28;20849;-77
2021/07/23 06:08:50;;;;;;;9.98;7.10;;;;;;;;;;4989636;28;20559;-77
2021/07/23 06:11:15;;;;;;;11.43;8.15;;;;;;;;;;4978971;28;20223;-76
2021/07/23 06:13:41;;;;;;;11.68;7.80;;;;;;;;;;4976820;28;20176;-76
2021/07/23 06:16:07;;;;;;;12.53;6.97;;;;;;;;;;4979701;28;20187;-76
2021/07/23 06:18:33;;;;;;;10.65;8.02;;;;;;;;;;4975254;28;20469;-77
2021/07/23 06:20:58;;;;;;;12.70;7.80;;;;;;;;;;4968009;28;20172;-77
2021/07/23 06:23:23;;;;;;;11.38;7.43;;;;;;;;;;4980282;28;20188;-77
2021/07/23 06:25:48;;;;;;;7.68;6.70;;;;;;;;;;4972330;28;20216;-77
2021/07/23 06:28:14;;;;;;;8.93;6.50;;;;;;;;;;4980830;28;20187;-76
2021/07/23 06:30:40;;;;;;;9.20;7.53;;;;;;;;;;4980456;28;20452;-77
2021/07/23 06:33:05;;;;;;;7.43;5.63;;;;;;;;;;4973797;28;20420;-76
2021/07/23 06:35:32;;;;;;;9.38;5.72;;;;;;;;;;4976180;28;20207;-76
2021/07/23 06:37:57;;;;;;;9.88;5.65;;;;;;;;;;4981895;28;20200;-76
2021/07/23 06:40:22;;;;;;;7.85;5.03;;;;;;;;;;4986690;28;20182;-77
2021/07/23 06:42:48;;;;;;;9.77;5.40;;;;;;;;;;4974917;28;20676;-77
2021/07/23 06:45:13;;;;;;;6.82;5.20;;;;;;;;;;4980690;28;20206;-77
2021/07/23 06:47:38;;;;;;;6.93;5.40;;;;;;;;;;4983135;28;20207;-77
2021/07/23 06:50:04;;;;;;;6.37;4.73;;;;;;;;;;4981419;28;20186;-76
2021/07/23 06:52:29;;;;;;;6.38;4.53;;;;;;;;;;4983315;28;20417;-77
2021/07/23 06:54:54;;;;;;;5.23;4.00;;;;;;;;;;4980445;28;20633;-77
2021/07/23 06:57:20;;;;;;;4.95;4.45;;;;;;;;;;4978148;28;20457;-77
2021/07/23 06:59:45;;;;;;;7.28;4.30;;;;;;;;;;4988284;28;20871;-77
2021/07/23 07:02:10;;;;;;;7.07;5.00;;;;;;;;;;4986180;28;20179;-77
2021/07/23 07:04:37;;;;;;;7.27;4.87;;;;;;;;;;4984935;28;20655;-77
2021/07/23 07:07:07;;;;;;;6.82;5.03;;;;;;;;;;4982919;28;20439;-76
2021/07/23 07:09:32;;;;;;;8.27;5.15;;;;;;;;;;4983935;28;20524;-77
2021/07/23 07:12:00;;;;;;;7.30;4.73;;;;;;;;;;4968460;28;20187;-77
2021/07/23 07:14:26;;;;;;;6.10;5.28;;;;;;;;;;4985781;28;20493;-77
2021/07/23 07:16:53;;;;;;;9.23;5.57;;;;;;;;;;4981301;28;20192;-77
2021/07/23 07:19:18;;;;;;;5.82;4.90;;;;;;;;;;4987229;28;20260;-77
2021/07/23 07:21:48;;;;;;;7.47;5.60;;;;;;;;;;4982427;28;20207;-77
2021/07/23 07:24:14;;;;;;;8.13;5.28;;;;;;;;;;4982355;28;20212;-77
2021/07/23 07:26:40;;;;;;;7.30;5.95;;;;;;;;;;4980273;28;20577;-77
2021/07/23 07:29:05;;;;;;;7.78;5.20;;;;;;;;;;4969931;28;20188;-77
2021/07/23 07:31:30;;;;;;;7.22;5.20;;;;;;;;;;4990936;28;20175;-76
2021/07/23 07:33:55;;;;;;;9.33;5.30;;;;;;;;;;4986686;28;20203;-77
2021/07/23 07:36:20;;;;;;;9.70;6.25;;;;;;;;;;4976198;28;20480;-77
2021/07/23 07:38:46;;;;;;;5.43;4.83;;;;;;;;;;4978897;28;20180;-77
2021/07/23 07:41:18;;;;;;;7.53;5.10;;;;;;;;;;4986060;28;20418;-77
2021/07/23 07:43:43;;;;;;;6.38;4.57;;;;;;;;;;4984629;28;20195;-76
2021/07/23 07:46:08;;;;;;;6.40;4.57;;;;;;;;;;4978212;28;20185;-77
2021/07/23 07:48:34;;;;;;;4.10;3.50;;;;;;;;;;4990859;28;20572;-77
2021/07/23 07:50:59;;;;;;;6.97;4.93;;;;;;;;;;4990579;28;20512;-77
2021/07/23 07:53:24;;;;;;;5.10;4.40;;;;;;;;;;4979978;28;20457;-77
2021/07/23 07:55:49;;;;;;;5.63;5.13;;;;;;;;;;4988476;28;20453;-77
2021/07/23 07:58:14;;;;;;;5.47;4.18;;;;;;;;;;4982811;28;20458;-77
2021/07/23 08:00:39;;;;;;;5.15;4.65;;;;;;;;;;4985996;28;20256;-76
2021/07/23 08:03:05;;;;;;;5.68;4.05;;;;;;;;;;4977913;28;20198;-77
2021/07/23 08:05:30;;;;;;;4.80;4.22;;;;;;;;;;4975359;28;20235;-77
2021/07/23 08:07:58;;;;;;;6.87;4.27;;;;;;;;;;4978293;28;20206;-77
2021/07/23 08:10:25;;;;;;;5.40;4.13;;;;;;;;;;4962095;28;20520;-77
2021/07/23 08:12:50;;;;;;;5.45;3.80;;;;;;;;;;4978502;28;20573;-76
2021/07/23 08:15:16;;;;;;;6.45;3.90;;;;;;;;;;4976503;28;20291;-77
2021/07/23 08:17:42;;;;;;;10.93;4.07;;;;;;;;;;4979352;28;20217;-77
2021/07/23 08:20:07;;;;;;;4.80;4.30;;;;;;;;;;4978678;28;20716;-77
2021/07/23 08:22:32;;;;;;;5.53;3.80;;;;;;;;;;4977601;28;20646;-77
2021/07/23 08:24:58;;;;;;;4.82;3.33;;;;;;;;;;4984365;28;20219;-77
2021/07/23 08:27:24;;;;;;;4.28;3.65;;;;;;;;;;4979515;28;20219;-77
2021/07/23 08:29:49;;;;;;;6.32;4.32;;;;;;;;;;4980160;28;20233;-77
2021/07/23 08:32:14;;;;;;;6.20;4.65;;;;;;;;;;4975987;28;20184;-77
2021/07/23 08:34:40;;;;;;;7.95;4.35;;;;;;;;;;4965017;28;20195;-76
2021/07/23 08:37:06;;;;;;;5.57;3.78;;;;;;;;;;4986587;28;20583;-76
2021/07/23 08:39:31;;;;;;;4.57;3.70;;;;;;;;;;4978425;28;20180;-74
2021/07/23 08:41:57;;;;;;;5.60;4.13;;;;;;;;;;4978884;28;20195;-74
2021/07/23 08:44:22;;;;;;;5.28;4.20;;;;;;;;;;4980127;28;20209;-74
2021/07/23 08:46:50;;;;;;;4.65;4.05;;;;;;;;;;4967426;28;20183;-74
2021/07/23 08:49:16;;;;;;;5.43;4.30;;;;;;;;;;4983064;28;20270;-74
2021/07/23 08:51:47;;;;;;;7.45;4.53;;;;;;;;;;4977914;28;20323;-74
2021/07/23 08:54:12;;;;;;;6.15;4.10;;;;;;;;;;4978170;28;20394;-75
2021/07/23 08:56:43;;;;;;;5.53;3.77;;;;;;;;;;4980962;28;20266;-75
2021/07/23 08:59:08;;;;;;;6.00;4.13;;;;;;;;;;4977896;28;20422;-74
2021/07/23 09:01:52;;;;;;;5.40;3.97;;;;;;;;;;4982075;28;20561;-74
2021/07/23 09:04:31;;;;;;;6.57;4.35;;;;;;;;;;4967226;28;20469;-74
2021/07/23 09:07:15;;;;;;;7.55;4.88;;;;;;;;;;4978027;28;20278;-75
2021/07/23 09:09:40;;;;;;;7.25;4.43;;;;;;;;;;4980953;28;20182;-76
2021/07/23 09:12:06;;;;;;;7.07;5.00;;;;;;;;;;4982533;28;20210;-77
2021/07/23 09:14:31;;;;;;;5.07;4.05;;;;;;;;;;4976579;28;20211;-74
2021/07/23 09:16:57;;;;;;;5.73;4.23;;;;;;;;;;4978390;28;20551;-74
2021/07/23 09:19:22;;;;;;;6.38;4.90;;;;;;;;;;4982307;28;20530;-74
2021/07/23 09:21:54;;;;;;;6.35;4.53;;;;;;;;;;4985951;28;20182;-75
2021/07/23 09:24:19;;;;;;;5.43;4.68;;;;;;;;;;4981576;28;20211;-74
2021/07/23 09:26:44;;;;;;;8.00;3.70;;;;;;;;;;4985164;28;20264;-76
2021/07/23 09:29:10;;;;;;;5.70;3.67;;;;;;;;;;4979642;28;20211;-74
2021/07/23 09:31:36;;;;;;;6.72;4.68;;;;;;;;;;4978272;28;20192;-74
2021/07/23 09:34:03;;;;;;;5.85;4.10;;;;;;;;;;4985080;28;20257;-74
2021/07/23 09:36:29;;;;;;;7.28;4.57;;;;;;;;;;4979397;28;20227;-75
2021/07/23 09:39:04;;;;;;;6.93;4.75;;;;;;;;;;4982620;28;20176;-74
2021/07/23 09:41:30;;;;;;;4.78;4.13;;;;;;;;;;4980699;28;20693;-74
2021/07/23 09:44:11;;;;;;;6.68;4.50;;;;;;;;;;4979234;28;20290;-74
2021/07/23 09:46:42;;;;;;;5.75;4.03;;;;;;;;;;4975967;28;20282;-74
2021/07/23 09:49:16;;;;;;;5.40;4.57;;;;;;;;;;4985976;28;20176;-74
2021/07/23 09:51:41;;;;;;;6.10;4.30;;;;;;;;;;4984720;28;20194;-74
2021/07/23 09:54:07;;;;;;;6.90;4.60;;;;;;;;;;4982288;28;20204;-74
2021/07/23 09:56:32;;;;;;;7.38;4.63;;;;;;;;;;4986799;28;20425;-75
2021/07/23 09:58:59;;;;;;;7.43;4.80;;;;;;;;;;4976743;28;20230;-75
2021/07/23 10:01:29;;;;;;;7.32;4.45;;;;;;;;;;4965521;28;20177;-73
2021/07/23 10:03:56;;;;;;;6.18;4.47;;;;;;;;;;4987721;28;20677;-74
2021/07/23 10:06:30;;;;;;;5.45;3.97;;;;;;;;;;4980916;28;20200;-75
2021/07/23 10:08:58;;;;;;;6.63;4.15;;;;;;;;;;4984248;28;20550;-74
2021/07/23 10:11:24;;;;;;;5.55;3.83;;;;;;;;;;4978560;28;20177;-75
2021/07/23 10:13:51;;;;;;;4.68;3.63;;;;;;;;;;4984274;28;20280;-75
2021/07/23 10:16:17;;;;;;;6.57;3.55;;;;;;;;;;4985886;28;20556;-75
2021/07/23 10:18:42;;;;;;;4.72;3.72;;;;;;;;;;4980122;28;20214;-74
2021/07/23 10:21:09;;;;;;;5.63;3.85;;;;;;;;;;4983450;28;20180;-74
2021/07/23 10:23:35;;;;;;;5.55;3.85;;;;;;;;;;4981188;28;20766;-74
2021/07/23 10:26:02;;;;;;;4.38;3.53;;;;;;;;;;4984716;28;20296;-75
2021/07/23 10:28:39;;;;;;;6.38;4.10;;;;;;;;;;4978121;28;20720;-75
2021/07/23 10:31:17;;;;;;;5.97;3.60;;;;;;;;;;4986907;28;20202;-74
2021/07/23 10:33:49;;;;;;;16.30;4.85;;;;;;;;;;4987808;28;20206;-76
2021/07/23 10:36:35;;;;;;;7.38;3.78;;;;;;;;;;4981380;28;20207;-74
2021/07/23 10:39:06;;;;;;;6.85;3.80;;;;;;;;;;4971746;28;20195;-75
2021/07/23 10:41:31;;;;;;;5.80;4.40;;;;;;;;;;4986533;28;20183;-75
2021/07/23 10:43:57;;;;;;;6.28;3.75;;;;;;;;;;4973035;28;20248;-74
2021/07/23 10:46:40;;;;;;;9.23;4.10;;;;;;;;;;4970078;28;20176;-74
2021/07/23 10:49:06;;;;;;;5.75;3.60;;;;;;;;;;4981849;28;20180;-74
2021/07/23 10:51:50;;;;;;;6.37;4.20;;;;;;;;;;4979079;28;20176;-75
2021/07/23 10:54:16;;;;;;;7.93;3.97;;;;;;;;;;4971782;28;20446;-75
2021/07/23 10:57:06;;;;;;;8.32;5.00;;;;;;;;;;4978936;28;20192;-75
2021/07/23 10:59:40;;;;;;;6.45;4.18;;;;;;;;;;4985470;28;20180;-76
2021/07/23 11:02:15;;;;;;;6.07;4.90;;;;;;;;;;4975878;28;20175;-75
2021/07/23 11:04:41;;;;;;;7.90;4.63;;;;;;;;;;4986093;28;20713;-75
2021/07/23 11:07:07;;;;;;;8.20;4.35;;;;;;;;;;4985788;28;20191;-76
2021/07/23 11:09:34;;;;;;;7.18;4.30;;;;;;;;;;4983089;28;20198;-75
2021/07/23 11:12:15;;;;;;;6.85;3.95;;;;;;;;;;4982807;28;20185;-75
2021/07/23 11:14:40;;;;;;;5.65;3.67;;;;;;;;;;4981824;28;20200;-75
2021/07/23 11:17:05;;;;;;;5.43;4.17;;;;;;;;;;4975219;28;20270;-75
2021/07/23 11:19:30;;;;;;;8.75;4.22;;;;;;;;;;4979525;28;20433;-74
2021/07/23 11:21:55;;;;;;;8.57;4.27;;;;;;;;;;4962110;28;20242;-74
2021/07/23 11:24:21;;;;;;;5.23;4.30;;;;;;;;;;4986150;28;21003;-74
2021/07/23 11:26:53;;;;;;;4.97;4.23;;;;;;;;;;4982866;28;20498;-74
2021/07/23 11:29:38;;;;;;;7.47;4.60;;;;;;;;;;4983977;28;20796;-75
2021/07/23 11:32:04;;;;;;;5.53;4.25;;;;;;;;;;4989378;28;20176;-75
2021/07/23 11:34:36;;;;;;;6.13;4.38;;;;;;;;;;4984916;28;20215;-76
2021/07/23 11:37:10;;;;;;;4.82;4.10;;;;;;;;;;4975642;28;20233;-75
2021/07/23 11:39:47;;;;;;;6.70;4.70;;;;;;;;;;4986488;28;20645;-77
2021/07/23 11:42:12;;;;;;;5.22;3.90;;;;;;;;;;4964898;28;20183;-76
2021/07/23 11:44:37;;;;;;;5.22;4.57;;;;;;;;;;4983298;28;20196;-75
2021/07/23 11:47:02;;;;;;;7.27;4.57;;;;;;;;;;4981766;28;20212;-75
2021/07/23 11:49:31;;;;;;;8.18;4.70;;;;;;;;;;4987636;28;20405;-75
2021/07/23 11:51:56;;;;;;;6.35;4.32;;;;;;;;;;4979378;28;20183;-76
2021/07/23 11:54:22;;;;;;;5.22;4.70;;;;;;;;;;4979434;28;20282;-75
2021/07/23 11:56:47;;;;;;;7.65;5.15;;;;;;;;;;4976556;28;20183;-75
2021/07/23 11:59:13;;;;;;;5.85;4.30;;;;;;;;;;4969155;28;20192;-75
2021/07/23 12:01:39;;;;;;;4.78;4.05;;;;;;;;;;4988499;28;20191;-75
2021/07/23 12:04:05;;;;;;;7.03;4.35;;;;;;;;;;4963471;28;20220;-74
2021/07/23 12:06:30;;;;;;;5.95;5.15;;;;;;;;;;4986543;28;20206;-77
2021/07/23 12:08:57;;;;;;;7.10;4.75;;;;;;;;;;4987073;28;20184;-76
2021/07/23 12:11:23;;;;;;;6.38;3.83;;;;;;;;;;4983042;28;20187;-75
2021/07/23 12:13:49;;;;;;;4.43;3.85;;;;;;;;;;4985932;28;20203;-77
2021/07/23 12:16:16;;;;;;;6.28;4.32;;;;;;;;;;4962912;28;20192;-76
2021/07/23 12:18:53;;;;;;;5.38;4.32;;;;;;;;;;4980234;28;20199;-76
2021/07/23 12:21:21;;;;;;;7.22;4.50;;;;;;;;;;4988541;28;20656;-76
2021/07/23 12:23:55;;;;;;;6.38;4.57;;;;;;;;;;4974005;28;20250;-76
2021/07/23 12:26:30;;;;;;;8.23;4.80;;;;;;;;;;4985548;28;20319;-75
2021/07/23 12:28:56;;;;;;;5.75;4.05;;;;;;;;;;4978713;28;20540;-74
2021/07/23 12:31:22;;;;;;;5.45;4.03;;;;;;;;;;4967061;28;24154;-74
2021/07/23 12:33:59;;;;;;;7.32;4.30;;;;;;;;;;4976050;28;20215;-75
2021/07/23 12:36:24;;;;;;;5.10;4.13;;;;;;;;;;4976535;28;20176;-75
2021/07/23 12:39:02;;;;;;;7.63;4.30;;;;;;;;;;4980087;28;20362;-75
2021/07/23 12:41:27;;;;;;;6.20;4.50;;;;;;;;;;4981197;28;20175;-75
2021/07/23 12:44:03;;;;;;;6.73;3.93;;;;;;;;;;4978728;28;20269;-75
2021/07/23 12:46:29;;;;;;;8.27;4.10;;;;;;;;;;4982141;28;20417;-75
2021/07/23 12:48:54;;;;;;;7.55;4.93;;;;;;;;;;4972454;28;20180;-76
2021/07/23 12:51:24;;;;;;;12.10;5.00;;;;;;;;;;4974835;28;20203;-75
2021/07/23 12:53:56;;;;;;;7.70;4.43;;;;;;;;;;4977393;28;20206;-75
2021/07/23 12:56:29;;;;;;;6.25;4.75;;;;;;;;;;4978844;28;21530;-76
2021/07/23 12:58:56;;;;;;;7.97;4.65;;;;;;;;;;4978072;28;20211;-76
2021/07/23 13:01:21;;;;;;;8.52;4.90;;;;;;;;;;4980306;28;20173;-76
2021/07/23 13:03:46;;;;;;;7.00;4.93;;;;;;;;;;4982781;28;20208;-76
2021/07/23 13:06:16;;;;;;;8.50;5.40;;;;;;;;;;4988292;28;20496;-75
2021/07/23 13:08:42;;;;;;;6.35;4.63;;;;;;;;;;4984572;28;20179;-75
2021/07/23 13:11:08;;;;;;;5.35;4.85;;;;;;;;;;4980245;28;20184;-76
2021/07/23 13:13:34;;;;;;;5.57;4.72;;;;;;;;;;4965889;28;20190;-75
2021/07/23 13:15:59;;;;;;;6.05;4.05;;;;;;;;;;4977719;28;20270;-76
2021/07/23 13:18:24;;;;;;;6.30;4.80;;;;;;;;;;4963913;28;20563;-76
2021/07/23 13:20:49;;;;;;;5.10;4.40;;;;;;;;;;4985276;28;20189;-75
2021/07/23 13:23:15;;;;;;;7.30;4.67;;;;;;;;;;4977444;28;20560;-76
2021/07/23 13:25:41;;;;;;;11.03;5.30;;;;;;;;;;4985548;28;20216;-76
2021/07/23 13:28:06;;;;;;;9.32;4.90;;;;;;;;;;4984669;28;20203;-76
2021/07/23 13:30:31;;;;;;;7.57;5.47;;;;;;;;;;4983983;28;20167;-75
2021/07/23 13:32:56;;;;;;;5.67;4.57;;;;;;;;;;4985035;28;20218;-75
2021/07/23 13:35:21;;;;;;;6.97;5.85;;;;;;;;;;4977578;28;20195;-75
2021/07/23 13:37:50;;;;;;;7.67;5.20;;;;;;;;;;4965100;28;20199;-76
2021/07/23 13:40:15;;;;;;;8.73;5.90;;;;;;;;;;4977454;28;20876;-75
2021/07/23 13:42:44;;;;;;;9.88;5.63;;;;;;;;;;4982881;28;20267;-76
2021/07/23 13:45:10;;;;;;;9.85;6.07;;;;;;;;;;4977112;28;20196;-75
2021/07/23 13:47:35;;;;;;;6.90;5.45;;;;;;;;;;4979367;28;20234;-75
2021/07/23 13:50:01;;;;;;;6.27;5.67;;;;;;;;;;4975950;28;20258;-76
2021/07/23 13:52:26;;;;;;;8.18;6.13;;;;;;;;;;4977889;28;20183;-76
2021/07/23 13:54:51;;;;;;;7.40;6.43;;;;;;;;;;4963484;28;20200;-75
2021/07/23 13:57:16;;;;;;;6.53;5.87;;;;;;;;;;4963771;28;20203;-75
2021/07/23 13:59:41;;;;;;;7.03;5.37;;;;;;;;;;4964174;28;20199;-75
2021/07/23 14:02:07;;;;;;;6.43;5.57;;;;;;;;;;4981333;28;20183;-74
2021/07/23 14:04:32;;;;;;;6.45;5.28;;;;;;;;;;4979034;28;20495;-75
2021/07/23 14:06:57;;;;;;;6.15;5.47;;;;;;;;;;4966896;28;20294;-76
2021/07/23 14:09:22;;;;;;;8.13;6.32;;;;;;;;;;4979473;28;20211;-76
2021/07/23 14:11:49;;;;;;;6.13;5.17;;;;;;;;;;4975891;28;20192;-75
2021/07/23 14:14:14;;;;;;;6.93;4.80;;;;;;;;;;4980903;28;20215;-75
2021/07/23 14:16:40;;;;;;;6.63;5.50;;;;;;;;;;4979514;28;20601;-75
2021/07/23 14:19:05;;;;;;;8.73;6.55;;;;;;;;;;4979387;28;20164;-75
2021/07/23 14:21:30;;;;;;;9.10;6.10;;;;;;;;;;4975506;28;20192;-75
2021/07/23 14:23:55;;;;;;;7.83;6.87;;;;;;;;;;4978068;28;20486;-76
2021/07/23 14:26:21;;;;;;;9.90;6.77;;;;;;;;;;4965994;28;20550;-75
2021/07/23 14:28:46;;;;;;;8.00;6.00;;;;;;;;;;4973518;28;20360;-75
2021/07/23 14:31:15;;;;;;;8.27;6.30;;;;;;;;;;4981976;28;20183;-74
2021/07/23 14:33:40;;;;;;;8.02;6.60;;;;;;;;;;4975625;28;20348;-77
2021/07/23 14:36:05;;;;;;;11.15;5.75;;;;;;;;;;4969674;28;20270;-75